createdAt,value
2018-11-03T00:01:05.564Z,7.15
2018-11-03T00:03:36.435Z,7.14
2018-11-03T00:06:10.883Z,7.19
2018-11-03T00:08:41.946Z,7.20
2018-11-03T00:11:12.212Z,7.16
2018-11-03T00:13:42.382Z,7.13
2018-11-03T00:16:14.899Z,7.04
2018-11-03T00:18:44.787Z,6.99
2018-11-03T00:21:15.614Z,7.05
2018-11-03T00:23:47.296Z,7.07
2018-11-03T00:26:20.251Z,7.04
2018-11-03T00:28:52.156Z,6.78
2018-11-03T00:31:23.010Z,6.12
2018-11-03T00:33:54.267Z,6.82
2018-11-03T00:36:25.719Z,6.83
2018-11-03T00:39:02.941Z,6.96
2018-11-03T00:41:32.126Z,7.02
2018-11-03T00:44:01.714Z,7.07
2018-11-03T00:46:37.483Z,7.08
2018-11-03T00:49:09.167Z,6.99
2018-11-03T00:51:44.248Z,6.88
2018-11-03T00:54:15.106Z,6.83
2018-11-03T00:56:46.403Z,6.78
2018-11-03T00:59:16.297Z,6.72
2018-11-03T01:01:47.461Z,6.73
2018-11-03T01:04:17.265Z,6.74
2018-11-03T01:06:49.723Z,6.82
2018-11-03T01:09:20.497Z,6.88
2018-11-03T01:11:51.819Z,6.90
2018-11-03T01:14:23.163Z,6.78
2018-11-03T01:16:53.345Z,6.75
2018-11-03T01:19:24.619Z,6.67
2018-11-03T01:21:54.620Z,6.72
2018-11-03T01:24:25.065Z,6.76
2018-11-03T01:26:56.147Z,6.80
2018-11-03T01:29:28.446Z,6.57
2018-11-03T01:32:00.792Z,6.44
2018-11-03T01:34:33.391Z,6.50
2018-11-03T01:37:05.540Z,6.58
2018-11-03T01:39:41.857Z,6.68
2018-11-03T01:42:18.518Z,6.78
2018-11-03T01:47:43.062Z,6.89
2018-11-03T01:50:19.426Z,6.95
2018-11-03T01:52:56.257Z,6.93
2018-11-03T01:55:41.006Z,6.98
2018-11-03T01:58:16.142Z,7.07
2018-11-03T02:00:47.604Z,7.11
2018-11-03T02:03:24.204Z,7.07
2018-11-03T02:05:55.311Z,7.00
2018-11-03T02:08:27.472Z,6.84
2018-11-03T02:11:06.319Z,6.82
2018-11-03T02:13:37.388Z,6.96
2018-11-03T02:16:11.207Z,6.99
2018-11-03T02:18:41.700Z,6.91
2018-11-03T02:21:12.820Z,6.94
2018-11-03T02:23:44.647Z,6.94
2018-11-03T02:26:16.092Z,6.94
2018-11-03T02:28:47.772Z,7.00
2018-11-03T02:31:18.654Z,7.05
2018-11-03T02:33:48.324Z,7.10
2018-11-03T02:36:18.492Z,7.16
2018-11-03T02:38:50.245Z,7.09
2018-11-03T02:41:22.587Z,6.96
2018-11-03T02:46:30.628Z,6.81
2018-11-03T02:49:01.090Z,6.85
2018-11-03T02:51:31.999Z,6.97
2018-11-03T02:54:02.456Z,7.06
2018-11-03T02:56:36.651Z,6.98
2018-11-03T02:59:10.468Z,7.08
2018-11-03T03:04:29.340Z,7.10
2018-11-03T03:07:09.121Z,7.04
2018-11-03T03:09:59.679Z,6.93
2018-11-03T03:12:29.895Z,6.88
2018-11-03T03:15:03.277Z,6.48
2018-11-03T03:17:34.402Z,6.93
2018-11-03T03:20:07.023Z,6.98
2018-11-03T03:22:40.105Z,6.83
2018-11-03T03:25:16.037Z,6.75
2018-11-03T03:27:47.214Z,6.63
2018-11-03T03:30:24.077Z,6.55
2018-11-03T03:32:57.034Z,6.56
2018-11-03T03:35:30.623Z,6.45
2018-11-03T03:38:02.935Z,6.46
2018-11-03T03:40:34.379Z,6.54
2018-11-03T03:43:04.944Z,6.52
2018-11-03T03:45:35.555Z,6.51
2018-11-03T03:48:14.991Z,6.43
2018-11-03T03:50:48.056Z,6.58
2018-11-03T03:53:17.519Z,6.64
2018-11-03T03:55:50.077Z,6.67
2018-11-03T03:58:24.240Z,6.64
2018-11-03T04:00:54.709Z,6.52
2018-11-03T04:03:26.171Z,6.61
2018-11-03T04:06:04.183Z,6.38
2018-11-03T04:08:54.486Z,6.75
2018-11-03T04:11:28.987Z,6.74
2018-11-03T04:13:59.175Z,6.79
2018-11-03T04:16:32.225Z,6.75
2018-11-03T04:19:06.274Z,6.76
2018-11-03T04:21:38.102Z,6.67
2018-11-03T04:24:09.867Z,6.68
2018-11-03T04:26:42.849Z,6.70
2018-11-03T04:29:16.103Z,6.70
2018-11-03T04:31:47.248Z,6.72
2018-11-03T04:34:18.580Z,6.71
2018-11-03T04:36:50.318Z,6.53
2018-11-03T04:39:20.957Z,6.44
2018-11-03T04:41:52.664Z,6.41
2018-11-03T04:44:24.468Z,5.12
2018-11-03T04:46:55.415Z,6.48
2018-11-03T04:49:25.304Z,6.54
2018-11-03T04:51:55.006Z,6.50
2018-11-03T04:54:26.629Z,6.55
2018-11-03T04:56:58.025Z,6.57
2018-11-03T04:59:29.399Z,6.56
2018-11-03T05:01:59.465Z,6.58
2018-11-03T05:04:31.482Z,6.49
2018-11-03T05:07:01.366Z,6.43
2018-11-03T05:09:32.479Z,6.38
2018-11-03T05:12:03.120Z,6.21
2018-11-03T05:14:34.213Z,6.19
2018-11-03T05:17:06.574Z,6.27
2018-11-03T05:19:37.817Z,6.30
2018-11-03T05:22:11.828Z,6.35
2018-11-03T05:24:44.143Z,6.43
2018-11-03T05:27:15.173Z,6.40
2018-11-03T05:29:46.973Z,6.46
2018-11-03T05:32:18.880Z,6.47
2018-11-03T05:34:50.189Z,6.49
2018-11-03T05:37:20.033Z,6.47
2018-11-03T05:39:51.433Z,6.45
2018-11-03T05:42:24.540Z,6.48
2018-11-03T05:44:55.021Z,6.52
2018-11-03T05:47:26.037Z,6.53
2018-11-03T05:50:03.504Z,6.41
2018-11-03T05:52:47.341Z,6.42
2018-11-03T05:55:22.869Z,6.43
2018-11-03T05:57:54.852Z,6.38
2018-11-03T06:00:28.385Z,6.32
2018-11-03T06:03:01.153Z,6.31
2018-11-03T06:05:33.298Z,6.36
2018-11-03T06:08:03.685Z,6.35
2018-11-03T06:10:35.600Z,6.31
2018-11-03T06:13:23.266Z,6.19
2018-11-03T06:15:56.953Z,6.34
2018-11-03T06:18:27.096Z,6.45
2018-11-03T06:20:56.614Z,6.53
2018-11-03T06:23:27.802Z,6.51
2018-11-03T06:25:58.527Z,6.46
2018-11-03T06:28:29.545Z,6.45
2018-11-03T06:31:06.825Z,6.32
2018-11-03T06:33:38.923Z,6.31
2018-11-03T06:36:10.997Z,6.30
2018-11-03T06:38:48.672Z,6.33
2018-11-03T06:41:22.901Z,6.32
2018-11-03T06:43:53.721Z,6.40
2018-11-03T06:46:27.540Z,6.49
2018-11-03T06:49:03.201Z,6.57
2018-11-03T06:51:36.248Z,6.52
2018-11-03T06:54:17.351Z,6.57
2018-11-03T06:56:47.059Z,6.62
2018-11-03T06:59:19.634Z,6.58
2018-11-03T07:01:52.447Z,6.48
2018-11-03T07:04:24.679Z,6.38
2018-11-03T07:06:58.300Z,6.46
2018-11-03T07:09:29.311Z,6.64
2018-11-03T07:12:07.439Z,6.72
2018-11-03T07:14:45.341Z,6.91
2018-11-03T07:17:16.514Z,6.86
2018-11-03T07:19:50.857Z,6.87
2018-11-03T07:22:20.340Z,7.02
2018-11-03T07:24:59.755Z,7.01
2018-11-03T07:27:37.109Z,6.94
2018-11-03T07:30:19.085Z,7.04
2018-11-03T07:32:49.596Z,7.21
2018-11-03T07:35:26.765Z,7.41
2018-11-03T07:37:58.379Z,7.43
2018-11-03T07:40:29.284Z,7.53
2018-11-03T07:43:10.710Z,7.59
2018-11-03T07:45:47.005Z,7.76
2018-11-03T07:48:28.442Z,7.77
2018-11-03T07:51:07.587Z,7.68
2018-11-03T07:53:43.002Z,7.81
2018-11-03T07:56:14.204Z,7.75
2018-11-03T07:58:47.559Z,7.80
2018-11-03T08:01:22.055Z,7.89
2018-11-03T08:03:56.044Z,8.02
2018-11-03T08:06:33.598Z,7.98
2018-11-03T08:09:08.425Z,7.87
2018-11-03T08:11:41.104Z,8.01
2018-11-03T08:14:18.136Z,8.12
2018-11-03T08:17:08.440Z,8.22
2018-11-03T08:19:39.878Z,8.56
2018-11-03T08:22:13.272Z,9.01
2018-11-03T08:24:47.547Z,9.02
2018-11-03T08:27:20.541Z,8.67
2018-11-03T08:29:51.950Z,8.69
2018-11-03T08:32:22.856Z,8.72
2018-11-03T08:34:57.430Z,9.27
2018-11-03T08:40:24.643Z,10.05
2018-11-03T08:42:55.328Z,10.05
2018-11-03T08:45:27.608Z,9.74
2018-11-03T08:47:59.705Z,10.85
2018-11-03T08:53:53.369Z,11.89
2018-11-03T08:56:23.529Z,12.54
2018-11-03T08:58:58.533Z,12.93
2018-11-03T09:02:09.337Z,12.88
2018-11-03T09:07:22.636Z,13.11
2018-11-03T09:09:54.673Z,13.68
2018-11-03T09:12:25.497Z,13.86
2018-11-03T09:14:55.647Z,13.68
2018-11-03T09:17:30.445Z,13.87
2018-11-03T09:20:08.864Z,13.96
2018-11-03T09:22:40.422Z,13.66
2018-11-03T09:26:53.619Z,13.34
2018-11-03T09:29:33.484Z,14.27
2018-11-03T09:32:12.317Z,14.77
2018-11-03T09:34:43.420Z,14.76
2018-11-03T09:37:19.081Z,15.28
2018-11-03T09:39:51.119Z,15.35
2018-11-03T09:42:45.515Z,15.69
2018-11-03T09:45:17.609Z,15.55
2018-11-03T09:47:52.217Z,16.39
2018-11-03T09:50:29.454Z,15.81
2018-11-03T09:53:07.357Z,15.12
2018-11-03T09:55:45.925Z,14.92
2018-11-03T09:58:40.367Z,15.14
2018-11-03T10:03:54.292Z,14.58
2018-11-03T10:06:25.870Z,15.68
2018-11-03T10:09:04.769Z,15.65
2018-11-03T10:11:54.660Z,14.46
2018-11-03T10:14:28.581Z,15.29
2018-11-03T10:17:02.320Z,15.72
2018-11-03T10:19:37.996Z,15.26
2018-11-03T10:22:14.697Z,15.03
2018-11-03T10:24:50.605Z,15.26
2018-11-03T10:27:32.118Z,15.61
2018-11-03T10:30:43.414Z,15.17
2018-11-03T10:33:29.197Z,14.57
2018-11-03T10:36:12.029Z,14.77
2018-11-03T10:38:45.201Z,14.43
2018-11-03T10:41:26.687Z,14.37
2018-11-03T10:44:00.659Z,14.44
2018-11-03T10:49:24.652Z,15.96
2018-11-03T10:52:17.236Z,16.32
2018-11-03T10:54:53.084Z,16.75
2018-11-03T10:57:40.548Z,17.14
2018-11-03T11:00:29.307Z,17.18
2018-11-03T11:03:07.301Z,18.09
2018-11-03T11:05:44.354Z,17.67
2018-11-03T11:08:20.499Z,17.02
2018-11-03T11:10:57.223Z,16.54
2018-11-03T11:13:33.459Z,16.85
2018-11-03T11:16:05.648Z,17.19
2018-11-03T11:18:37.494Z,16.80
2018-11-03T11:21:18.604Z,16.23
2018-11-03T11:26:47.747Z,15.82
2018-11-03T11:32:08.518Z,16.24
2018-11-03T11:34:58.746Z,16.59
2018-11-03T11:37:31.065Z,16.37
2018-11-03T11:40:12.997Z,16.38
2018-11-03T11:45:49.303Z,15.34
2018-11-03T11:51:18.443Z,16.33
2018-11-03T11:53:58.415Z,15.35
2018-11-03T11:56:32.740Z,15.82
2018-11-03T11:59:13.596Z,16.12
2018-11-03T12:04:57.218Z,15.44
2018-11-03T12:07:39.976Z,15.75
2018-11-03T12:10:37.621Z,16.18
2018-11-03T12:16:11.725Z,16.13
2018-11-03T12:18:59.679Z,16.44
2018-11-03T12:21:37.757Z,16.93
2018-11-03T12:24:18.849Z,17.07
2018-11-03T12:26:52.175Z,16.68
2018-11-03T12:29:42.320Z,16.68
2018-11-03T12:32:14.214Z,16.92
2018-11-03T12:34:53.748Z,17.30
2018-11-03T12:40:25.104Z,17.12
2018-11-03T12:42:57.825Z,17.56
2018-11-03T12:45:45.056Z,17.92
2018-11-03T12:48:17.730Z,18.10
2018-11-03T12:50:55.191Z,18.42
2018-11-03T12:53:30.931Z,18.36
2018-11-03T12:56:05.034Z,18.37
2018-11-03T12:58:41.428Z,17.88
2018-11-03T13:01:14.606Z,17.71
2018-11-03T13:03:53.533Z,17.57
2018-11-03T13:06:28.769Z,17.43
2018-11-03T13:11:41.146Z,16.88
2018-11-03T13:14:36.741Z,16.69
2018-11-03T13:17:16.823Z,16.31
2018-11-03T13:19:51.734Z,16.48
2018-11-03T13:22:25.145Z,16.01
2018-11-03T13:25:10.709Z,15.72
2018-11-03T13:27:54.206Z,15.71
2018-11-03T13:30:32.876Z,15.17
2018-11-03T13:36:11.464Z,15.15
2018-11-03T13:38:43.431Z,15.13
2018-11-03T13:41:14.250Z,14.72
2018-11-03T13:43:45.597Z,14.44
2018-11-03T13:46:26.386Z,14.52
2018-11-03T13:49:01.122Z,14.36
2018-11-03T13:51:35.822Z,14.46
2018-11-03T13:54:12.036Z,14.39
2018-11-03T13:56:46.900Z,14.39
2018-11-03T13:59:24.887Z,14.30
2018-11-03T14:02:07.615Z,14.13
2018-11-03T14:04:47.323Z,14.03
2018-11-03T14:07:21.757Z,14.07
2018-11-03T14:09:53.785Z,14.15
2018-11-03T14:12:34.697Z,14.07
2018-11-03T14:15:21.129Z,14.12
2018-11-03T14:17:59.388Z,14.12
2018-11-03T14:20:44.949Z,13.84
2018-11-03T14:23:30.385Z,13.85
2018-11-03T14:26:06.423Z,13.89
2018-11-03T14:28:39.722Z,13.99
2018-11-03T14:31:16.193Z,13.88
2018-11-03T14:36:25.239Z,13.92
2018-11-03T14:38:56.357Z,13.87
2018-11-03T14:41:36.046Z,13.90
2018-11-03T14:44:14.055Z,13.88
2018-11-03T14:46:46.738Z,13.92
2018-11-03T14:49:18.774Z,13.87
2018-11-03T14:54:31.342Z,13.69
2018-11-03T14:57:09.271Z,13.69
2018-11-03T14:59:42.788Z,13.75
2018-11-03T15:02:21.311Z,13.68
2018-11-03T15:05:00.336Z,13.68
2018-11-03T15:07:39.751Z,13.65
2018-11-03T15:10:17.261Z,13.58
2018-11-03T15:12:47.527Z,13.61
2018-11-03T15:15:50.320Z,13.61
2018-11-03T15:18:33.637Z,13.57
2018-11-03T15:21:07.590Z,13.54
2018-11-03T15:23:40.200Z,13.47
2018-11-03T15:26:12.762Z,13.48
2018-11-03T15:28:45.646Z,13.52
2018-11-03T15:31:18.393Z,13.50
2018-11-03T15:33:56.040Z,13.48
2018-11-03T15:36:27.724Z,13.50
2018-11-03T15:39:00.663Z,13.42
2018-11-03T15:41:36.258Z,13.37
2018-11-03T15:44:11.098Z,13.35
2018-11-03T15:46:43.359Z,13.29
2018-11-03T15:49:13.373Z,13.28
2018-11-03T15:51:48.182Z,13.23
2018-11-03T15:54:29.327Z,13.21
2018-11-03T15:57:02.210Z,13.09
2018-11-03T15:59:33.656Z,13.03
2018-11-03T16:02:18.141Z,13.01
2018-11-03T16:04:57.134Z,12.94
2018-11-03T16:07:28.650Z,12.91
2018-11-03T16:10:00.038Z,12.88
2018-11-03T16:12:38.040Z,12.84
2018-11-03T16:15:20.714Z,12.79
2018-11-03T16:17:52.459Z,12.74
2018-11-03T16:20:22.435Z,12.66
2018-11-03T16:23:05.716Z,12.59
2018-11-03T16:25:51.595Z,12.48
2018-11-03T16:28:26.549Z,12.36
2018-11-03T16:31:06.537Z,12.24
2018-11-03T16:33:38.522Z,12.20
2018-11-03T16:36:14.621Z,12.02
2018-11-03T16:39:11.771Z,11.87
2018-11-03T16:42:00.405Z,11.79
2018-11-03T16:44:37.053Z,11.71
2018-11-03T16:47:20.566Z,11.71
2018-11-03T16:50:10.767Z,11.68
2018-11-03T16:52:47.472Z,11.60
2018-11-03T16:55:22.261Z,11.55
2018-11-03T16:57:56.798Z,11.46
2018-11-03T17:00:27.947Z,11.46
2018-11-03T17:02:58.749Z,11.37
2018-11-03T17:05:30.823Z,11.28
2018-11-03T17:08:03.422Z,11.25
2018-11-03T17:10:34.473Z,11.24
2018-11-03T17:13:06.437Z,11.16
2018-11-03T17:15:38.193Z,11.11
2018-11-03T17:18:15.089Z,11.12
2018-11-03T17:20:52.601Z,11.07
2018-11-03T17:23:30.822Z,10.95
2018-11-03T17:26:20.101Z,10.79
2018-11-03T17:28:53.219Z,10.61
2018-11-03T17:31:23.365Z,10.42
2018-11-03T17:36:47.490Z,10.30
2018-11-03T17:39:27.687Z,10.26
2018-11-03T17:41:58.600Z,10.07
2018-11-03T17:44:33.598Z,9.93
2018-11-03T17:47:09.076Z,9.89
2018-11-03T17:49:42.638Z,9.62
2018-11-03T17:52:22.122Z,9.36
2018-11-03T17:57:47.268Z,9.28
2018-11-03T18:02:56.584Z,9.37
2018-11-03T18:05:38.633Z,9.39
